sensor_id;sensor_type;location;lat;lon;timestamp;P1;durP1;ratioP1;P2;durP2;ratioP2
67562;SDS011;54392;53.556;49.214;2022-11-25T00:01:07;25.37;;;14.90;;
67562;SDS011;54392;53.556;49.214;2022-11-25T00:03:43;21.25;;;14.60;;
67562;SDS011;54392;53.556;49.214;2022-11-25T00:06:14;24.98;;;14.15;;
67562;SDS011;54392;53.556;49.214;2022-11-25T00:08:45;24.12;;;16.48;;
67562;SDS011;54392;53.556;49.214;2022-11-25T00:11:13;20.88;;;15.20;;
67562;SDS011;54392;53.556;49.214;2022-11-25T00:13:40;27.65;;;14.65;;
67562;SDS011;54392;53.556;49.214;2022-11-25T00:16:07;19.48;;;15.35;;
67562;SDS011;54392;53.556;49.214;2022-11-25T00:18:34;30.70;;;15.50;;
67562;SDS011;54392;53.556;49.214;2022-11-25T00:21:06;25.15;;;15.63;;
67562;SDS011;54392;53.556;49.214;2022-11-25T00:23:33;27.27;;;16.48;;
67562;SDS011;54392;53.556;49.214;2022-11-25T00:26:07;24.05;;;17.37;;
67562;SDS011;54392;53.556;49.214;2022-11-25T00:28:33;19.62;;;12.70;;
67562;SDS011;54392;53.556;49.214;2022-11-25T00:31:06;31.55;;;18.87;;
67562;SDS011;54392;53.556;49.214;2022-11-25T00:33:44;31.12;;;17.25;;
67562;SDS011;54392;53.556;49.214;2022-11-25T00:38:41;23.12;;;15.07;;
67562;SDS011;54392;53.556;49.214;2022-11-25T00:41:07;24.77;;;18.45;;
67562;SDS011;54392;53.556;49.214;2022-11-25T00:43:55;30.17;;;18.75;;
67562;SDS011;54392;53.556;49.214;2022-11-25T00:46:45;27.17;;;17.15;;
67562;SDS011;54392;53.556;49.214;2022-11-25T00:49:12;27.67;;;16.35;;
67562;SDS011;54392;53.556;49.214;2022-11-25T00:51:38;30.58;;;18.05;;
67562;SDS011;54392;53.556;49.214;2022-11-25T00:54:05;33.38;;;19.05;;
67562;SDS011;54392;53.556;49.214;2022-11-25T00:56:31;29.33;;;17.37;;
67562;SDS011;54392;53.556;49.214;2022-11-25T00:59:00;25.48;;;16.80;;
67562;SDS011;54392;53.556;49.214;2022-11-25T01:01:26;26.67;;;19.60;;
67562;SDS011;54392;53.556;49.214;2022-11-25T01:03:52;25.00;;;16.23;;
67562;SDS011;54392;53.556;49.214;2022-11-25T01:06:19;24.45;;;14.75;;
67562;SDS011;54392;53.556;49.214;2022-11-25T01:08:48;39.35;;;20.55;;
67562;SDS011;54392;53.556;49.214;2022-11-25T01:11:20;29.40;;;18.23;;
67562;SDS011;54392;53.556;49.214;2022-11-25T01:13:47;24.67;;;16.55;;
67562;SDS011;54392;53.556;49.214;2022-11-25T01:16:15;26.48;;;19.67;;
67562;SDS011;54392;53.556;49.214;2022-11-25T01:18:43;29.65;;;17.10;;
67562;SDS011;54392;53.556;49.214;2022-11-25T01:21:11;32.45;;;21.35;;
67562;SDS011;54392;53.556;49.214;2022-11-25T01:23:41;35.07;;;19.47;;
67562;SDS011;54392;53.556;49.214;2022-11-25T01:26:13;27.42;;;18.80;;
67562;SDS011;54392;53.556;49.214;2022-11-25T01:28:41;31.58;;;21.25;;
67562;SDS011;54392;53.556;49.214;2022-11-25T01:31:11;30.85;;;22.15;;
67562;SDS011;54392;53.556;49.214;2022-11-25T01:33:39;33.00;;;20.80;;
67562;SDS011;54392;53.556;49.214;2022-11-25T01:36:09;43.08;;;21.25;;
67562;SDS011;54392;53.556;49.214;2022-11-25T01:38:37;31.73;;;21.60;;
67562;SDS011;54392;53.556;49.214;2022-11-25T01:41:06;33.88;;;21.73;;
67562;SDS011;54392;53.556;49.214;2022-11-25T01:43:34;31.23;;;19.10;;
67562;SDS011;54392;53.556;49.214;2022-11-25T01:49:02;37.65;;;20.52;;
67562;SDS011;54392;53.556;49.214;2022-11-25T01:51:55;31.65;;;17.27;;
67562;SDS011;54392;53.556;49.214;2022-11-25T01:55:12;27.77;;;17.40;;
67562;SDS011;54392;53.556;49.214;2022-11-25T01:57:42;29.87;;;18.58;;
67562;SDS011;54392;53.556;49.214;2022-11-25T02:00:12;29.40;;;18.40;;
67562;SDS011;54392;53.556;49.214;2022-11-25T02:02:39;34.83;;;19.95;;
67562;SDS011;54392;53.556;49.214;2022-11-25T02:05:12;41.67;;;24.08;;
67562;SDS011;54392;53.556;49.214;2022-11-25T02:07:42;32.40;;;22.92;;
67562;SDS011;54392;53.556;49.214;2022-11-25T02:10:17;41.10;;;21.00;;
67562;SDS011;54392;53.556;49.214;2022-11-25T02:12:46;40.97;;;22.13;;
67562;SDS011;54392;53.556;49.214;2022-11-25T02:15:13;36.17;;;23.12;;
67562;SDS011;54392;53.556;49.214;2022-11-25T02:17:43;29.70;;;18.12;;
67562;SDS011;54392;53.556;49.214;2022-11-25T02:20:14;33.38;;;20.40;;
67562;SDS011;54392;53.556;49.214;2022-11-25T02:25:34;39.23;;;23.20;;
67562;SDS011;54392;53.556;49.214;2022-11-25T02:28:08;37.30;;;22.85;;
67562;SDS011;54392;53.556;49.214;2022-11-25T02:30:36;33.60;;;20.67;;
67562;SDS011;54392;53.556;49.214;2022-11-25T02:33:03;27.85;;;18.35;;
67562;SDS011;54392;53.556;49.214;2022-11-25T02:35:36;27.33;;;19.50;;
67562;SDS011;54392;53.556;49.214;2022-11-25T02:38:25;26.90;;;18.02;;
67562;SDS011;54392;53.556;49.214;2022-11-25T02:41:09;27.55;;;21.60;;
67562;SDS011;54392;53.556;49.214;2022-11-25T02:43:43;32.30;;;19.70;;
67562;SDS011;54392;53.556;49.214;2022-11-25T02:46:10;41.08;;;19.33;;
67562;SDS011;54392;53.556;49.214;2022-11-25T02:48:38;33.45;;;17.67;;
67562;SDS011;54392;53.556;49.214;2022-11-25T02:51:06;28.80;;;20.67;;
67562;SDS011;54392;53.556;49.214;2022-11-25T02:53:34;27.45;;;21.35;;
67562;SDS011;54392;53.556;49.214;2022-11-25T02:56:03;31.40;;;18.62;;
67562;SDS011;54392;53.556;49.214;2022-11-25T02:58:30;45.58;;;20.92;;
67562;SDS011;54392;53.556;49.214;2022-11-25T03:00:56;29.08;;;16.48;;
67562;SDS011;54392;53.556;49.214;2022-11-25T03:03:22;34.38;;;22.85;;
67562;SDS011;54392;53.556;49.214;2022-11-25T03:05:49;40.65;;;22.52;;
67562;SDS011;54392;53.556;49.214;2022-11-25T03:08:15;29.83;;;18.42;;
67562;SDS011;54392;53.556;49.214;2022-11-25T03:10:44;34.70;;;20.17;;
67562;SDS011;54392;53.556;49.214;2022-11-25T03:13:12;39.22;;;22.10;;
67562;SDS011;54392;53.556;49.214;2022-11-25T03:15:45;28.80;;;17.95;;
67562;SDS011;54392;53.556;49.214;2022-11-25T03:18:11;35.92;;;18.60;;
67562;SDS011;54392;53.556;49.214;2022-11-25T03:20:37;42.08;;;24.60;;
67562;SDS011;54392;53.556;49.214;2022-11-25T03:23:03;27.60;;;18.02;;
67562;SDS011;54392;53.556;49.214;2022-11-25T03:25:36;26.95;;;17.42;;
67562;SDS011;54392;53.556;49.214;2022-11-25T03:28:02;47.25;;;19.90;;
67562;SDS011;54392;53.556;49.214;2022-11-25T03:30:29;27.77;;;19.55;;
67562;SDS011;54392;53.556;49.214;2022-11-25T03:32:57;30.75;;;19.83;;
67562;SDS011;54392;53.556;49.214;2022-11-25T03:35:23;46.08;;;20.12;;
67562;SDS011;54392;53.556;49.214;2022-11-25T03:37:50;33.15;;;20.40;;
67562;SDS011;54392;53.556;49.214;2022-11-25T03:40:16;31.58;;;19.87;;
67562;SDS011;54392;53.556;49.214;2022-11-25T03:42:44;41.85;;;23.08;;
67562;SDS011;54392;53.556;49.214;2022-11-25T03:45:11;34.63;;;23.70;;
67562;SDS011;54392;53.556;49.214;2022-11-25T03:47:39;49.10;;;25.58;;
67562;SDS011;54392;53.556;49.214;2022-11-25T03:50:06;43.40;;;23.80;;
67562;SDS011;54392;53.556;49.214;2022-11-25T03:52:34;36.72;;;22.85;;
67562;SDS011;54392;53.556;49.214;2022-11-25T03:55:03;28.75;;;20.73;;
67562;SDS011;54392;53.556;49.214;2022-11-25T03:57:29;44.30;;;27.85;;
67562;SDS011;54392;53.556;49.214;2022-11-25T03:59:58;40.00;;;23.58;;
67562;SDS011;54392;53.556;49.214;2022-11-25T04:02:33;37.67;;;24.40;;
67562;SDS011;54392;53.556;49.214;2022-11-25T04:05:02;39.80;;;21.17;;
67562;SDS011;54392;53.556;49.214;2022-11-25T04:07:30;44.65;;;25.60;;
67562;SDS011;54392;53.556;49.214;2022-11-25T04:09:56;50.72;;;28.33;;
67562;SDS011;54392;53.556;49.214;2022-11-25T04:12:22;51.65;;;25.40;;
67562;SDS011;54392;53.556;49.214;2022-11-25T04:15:29;39.78;;;25.42;;
67562;SDS011;54392;53.556;49.214;2022-11-25T04:17:57;46.25;;;27.30;;
67562;SDS011;54392;53.556;49.214;2022-11-25T04:20:29;39.90;;;26.50;;
67562;SDS011;54392;53.556;49.214;2022-11-25T04:22:55;45.50;;;28.73;;
67562;SDS011;54392;53.556;49.214;2022-11-25T04:25:22;53.50;;;30.02;;
67562;SDS011;54392;53.556;49.214;2022-11-25T04:27:48;47.95;;;30.33;;
67562;SDS011;54392;53.556;49.214;2022-11-25T04:30:19;45.97;;;28.20;;
67562;SDS011;54392;53.556;49.214;2022-11-25T04:32:46;53.85;;;28.40;;
67562;SDS011;54392;53.556;49.214;2022-11-25T04:35:12;47.92;;;25.45;;
67562;SDS011;54392;53.556;49.214;2022-11-25T04:37:38;39.95;;;25.45;;
67562;SDS011;54392;53.556;49.214;2022-11-25T04:40:04;33.10;;;22.50;;
67562;SDS011;54392;53.556;49.214;2022-11-25T04:42:34;38.30;;;21.02;;
67562;SDS011;54392;53.556;49.214;2022-11-25T04:45:07;43.22;;;22.50;;
67562;SDS011;54392;53.556;49.214;2022-11-25T04:47:35;29.95;;;20.58;;
67562;SDS011;54392;53.556;49.214;2022-11-25T04:50:07;34.22;;;20.73;;
67562;SDS011;54392;53.556;49.214;2022-11-25T04:52:37;29.50;;;20.77;;
67562;SDS011;54392;53.556;49.214;2022-11-25T04:55:08;37.28;;;19.90;;
67562;SDS011;54392;53.556;49.214;2022-11-25T04:57:34;37.65;;;22.15;;
67562;SDS011;54392;53.556;49.214;2022-11-25T05:00:04;28.50;;;18.90;;
67562;SDS011;54392;53.556;49.214;2022-11-25T05:02:38;29.35;;;17.55;;
67562;SDS011;54392;53.556;49.214;2022-11-25T05:05:05;44.28;;;24.37;;
67562;SDS011;54392;53.556;49.214;2022-11-25T05:07:31;23.65;;;18.98;;
67562;SDS011;54392;53.556;49.214;2022-11-25T05:09:57;24.55;;;18.17;;
67562;SDS011;54392;53.556;49.214;2022-11-25T05:12:25;24.60;;;15.45;;
67562;SDS011;54392;53.556;49.214;2022-11-25T05:14:52;32.78;;;16.55;;
67562;SDS011;54392;53.556;49.214;2022-11-25T05:17:22;44.92;;;16.67;;
67562;SDS011;54392;53.556;49.214;2022-11-25T05:19:50;28.90;;;15.90;;
67562;SDS011;54392;53.556;49.214;2022-11-25T05:22:17;28.83;;;17.17;;
67562;SDS011;54392;53.556;49.214;2022-11-25T05:24:45;17.23;;;12.82;;
67562;SDS011;54392;53.556;49.214;2022-11-25T05:27:11;22.20;;;15.02;;
67562;SDS011;54392;53.556;49.214;2022-11-25T05:29:38;16.85;;;13.23;;
67562;SDS011;54392;53.556;49.214;2022-11-25T05:32:04;19.55;;;16.40;;
67562;SDS011;54392;53.556;49.214;2022-11-25T05:34:31;19.65;;;13.05;;
67562;SDS011;54392;53.556;49.214;2022-11-25T05:36:57;22.37;;;12.37;;
67562;SDS011;54392;53.556;49.214;2022-11-25T05:39:23;22.80;;;11.75;;
67562;SDS011;54392;53.556;49.214;2022-11-25T05:41:49;23.38;;;14.13;;
67562;SDS011;54392;53.556;49.214;2022-11-25T05:44:15;14.23;;;10.13;;
67562;SDS011;54392;53.556;49.214;2022-11-25T05:46:43;13.70;;;10.43;;
67562;SDS011;54392;53.556;49.214;2022-11-25T05:49:11;14.85;;;11.43;;
67562;SDS011;54392;53.556;49.214;2022-11-25T05:51:37;17.15;;;10.05;;
67562;SDS011;54392;53.556;49.214;2022-11-25T05:54:03;19.75;;;11.10;;
67562;SDS011;54392;53.556;49.214;2022-11-25T05:56:30;22.17;;;12.57;;
67562;SDS011;54392;53.556;49.214;2022-11-25T05:58:57;20.12;;;12.95;;
67562;SDS011;54392;53.556;49.214;2022-11-25T06:01:23;19.90;;;14.35;;
67562;SDS011;54392;53.556;49.214;2022-11-25T06:03:50;24.63;;;15.63;;
67562;SDS011;54392;53.556;49.214;2022-11-25T06:06:17;22.00;;;15.73;;
67562;SDS011;54392;53.556;49.214;2022-11-25T06:08:43;16.62;;;12.50;;
67562;SDS011;54392;53.556;49.214;2022-11-25T06:11:11;29.60;;;16.42;;
67562;SDS011;54392;53.556;49.214;2022-11-25T06:13:39;24.98;;;15.50;;
67562;SDS011;54392;53.556;49.214;2022-11-25T06:16:07;34.53;;;16.67;;
67562;SDS011;54392;53.556;49.214;2022-11-25T06:18:35;18.02;;;13.50;;
67562;SDS011;54392;53.556;49.214;2022-11-25T06:21:03;24.35;;;15.43;;
67562;SDS011;54392;53.556;49.214;2022-11-25T06:23:31;21.77;;;14.70;;
67562;SDS011;54392;53.556;49.214;2022-11-25T06:26:07;19.00;;;13.57;;
67562;SDS011;54392;53.556;49.214;2022-11-25T06:28:54;29.58;;;16.37;;
67562;SDS011;54392;53.556;49.214;2022-11-25T06:31:22;19.92;;;14.90;;
67562;SDS011;54392;53.556;49.214;2022-11-25T06:33:50;18.58;;;12.07;;
67562;SDS011;54392;53.556;49.214;2022-11-25T06:36:17;23.12;;;15.30;;
67562;SDS011;54392;53.556;49.214;2022-11-25T06:38:45;17.00;;;13.80;;
67562;SDS011;54392;53.556;49.214;2022-11-25T06:41:13;24.95;;;15.57;;
67562;SDS011;54392;53.556;49.214;2022-11-25T06:43:39;29.60;;;17.20;;
67562;SDS011;54392;53.556;49.214;2022-11-25T06:46:06;30.60;;;15.13;;
67562;SDS011;54392;53.556;49.214;2022-11-25T06:48:34;22.17;;;16.23;;
67562;SDS011;54392;53.556;49.214;2022-11-25T06:51:02;23.42;;;14.45;;
67562;SDS011;54392;53.556;49.214;2022-11-25T06:53:32;17.25;;;12.82;;
67562;SDS011;54392;53.556;49.214;2022-11-25T06:56:16;23.75;;;14.63;;
67562;SDS011;54392;53.556;49.214;2022-11-25T06:58:47;25.27;;;17.45;;
67562;SDS011;54392;53.556;49.214;2022-11-25T07:01:25;25.42;;;17.40;;
67562;SDS011;54392;53.556;49.214;2022-11-25T07:03:57;25.08;;;14.98;;
67562;SDS011;54392;53.556;49.214;2022-11-25T07:06:24;28.95;;;17.95;;
67562;SDS011;54392;53.556;49.214;2022-11-25T07:08:50;31.05;;;17.33;;
67562;SDS011;54392;53.556;49.214;2022-11-25T07:11:21;23.02;;;18.33;;
67562;SDS011;54392;53.556;49.214;2022-11-25T07:13:52;26.60;;;18.27;;
67562;SDS011;54392;53.556;49.214;2022-11-25T07:16:26;29.40;;;17.98;;
67562;SDS011;54392;53.556;49.214;2022-11-25T07:18:52;25.92;;;16.20;;
67562;SDS011;54392;53.556;49.214;2022-11-25T07:21:20;21.33;;;15.30;;
67562;SDS011;54392;53.556;49.214;2022-11-25T07:23:47;32.28;;;15.63;;
67562;SDS011;54392;53.556;49.214;2022-11-25T07:26:17;25.52;;;19.15;;
67562;SDS011;54392;53.556;49.214;2022-11-25T07:28:46;27.15;;;18.62;;
67562;SDS011;54392;53.556;49.214;2022-11-25T07:31:21;22.75;;;16.75;;
67562;SDS011;54392;53.556;49.214;2022-11-25T07:33:55;23.02;;;15.52;;
67562;SDS011;54392;53.556;49.214;2022-11-25T07:36:24;22.50;;;15.73;;
67562;SDS011;54392;53.556;49.214;2022-11-25T07:38:51;20.70;;;14.13;;
67562;SDS011;54392;53.556;49.214;2022-11-25T07:41:21;29.83;;;16.95;;
67562;SDS011;54392;53.556;49.214;2022-11-25T07:43:56;23.77;;;17.15;;
67562;SDS011;54392;53.556;49.214;2022-11-25T07:46:32;25.60;;;15.82;;
67562;SDS011;54392;53.556;49.214;2022-11-25T07:49:01;21.45;;;14.63;;
67562;SDS011;54392;53.556;49.214;2022-11-25T07:51:30;22.87;;;16.77;;
67562;SDS011;54392;53.556;49.214;2022-11-25T07:53:58;21.58;;;18.75;;
67562;SDS011;54392;53.556;49.214;2022-11-25T07:56:25;28.20;;;20.05;;
67562;SDS011;54392;53.556;49.214;2022-11-25T07:58:53;30.73;;;18.35;;
67562;SDS011;54392;53.556;49.214;2022-11-25T08:01:24;30.08;;;18.55;;
67562;SDS011;54392;53.556;49.214;2022-11-25T08:03:54;24.10;;;17.45;;
67562;SDS011;54392;53.556;49.214;2022-11-25T08:06:23;19.85;;;15.05;;
67562;SDS011;54392;53.556;49.214;2022-11-25T08:08:50;28.95;;;19.42;;
67562;SDS011;54392;53.556;49.214;2022-11-25T08:11:29;26.40;;;17.92;;
67562;SDS011;54392;53.556;49.214;2022-11-25T08:13:59;30.27;;;17.92;;
67562;SDS011;54392;53.556;49.214;2022-11-25T08:16:26;30.25;;;20.35;;
67562;SDS011;54392;53.556;49.214;2022-11-25T08:18:53;32.50;;;20.23;;
67562;SDS011;54392;53.556;49.214;2022-11-25T08:21:23;33.80;;;20.27;;
67562;SDS011;54392;53.556;49.214;2022-11-25T08:23:53;34.78;;;19.23;;
67562;SDS011;54392;53.556;49.214;2022-11-25T08:26:26;27.95;;;19.45;;
67562;SDS011;54392;53.556;49.214;2022-11-25T08:28:55;36.30;;;24.35;;
67562;SDS011;54392;53.556;49.214;2022-11-25T08:31:29;32.85;;;20.52;;
67562;SDS011;54392;53.556;49.214;2022-11-25T08:33:59;30.25;;;19.87;;
67562;SDS011;54392;53.556;49.214;2022-11-25T08:36:29;33.78;;;22.30;;
67562;SDS011;54392;53.556;49.214;2022-11-25T08:39:05;41.17;;;24.60;;
67562;SDS011;54392;53.556;49.214;2022-11-25T08:41:35;41.85;;;20.95;;
67562;SDS011;54392;53.556;49.214;2022-11-25T08:44:03;34.80;;;21.55;;
67562;SDS011;54392;53.556;49.214;2022-11-25T08:46:31;32.22;;;22.58;;
67562;SDS011;54392;53.556;49.214;2022-11-25T08:49:03;34.50;;;20.98;;
67562;SDS011;54392;53.556;49.214;2022-11-25T08:51:30;46.08;;;24.70;;
67562;SDS011;54392;53.556;49.214;2022-11-25T08:53:58;28.62;;;18.17;;
67562;SDS011;54392;53.556;49.214;2022-11-25T08:56:27;24.10;;;16.65;;
67562;SDS011;54392;53.556;49.214;2022-11-25T08:58:56;26.65;;;17.37;;
67562;SDS011;54392;53.556;49.214;2022-11-25T09:01:26;24.83;;;16.48;;
67562;SDS011;54392;53.556;49.214;2022-11-25T09:03:54;24.77;;;14.40;;
67562;SDS011;54392;53.556;49.214;2022-11-25T09:06:21;22.70;;;12.73;;
67562;SDS011;54392;53.556;49.214;2022-11-25T09:08:56;21.95;;;16.73;;
67562;SDS011;54392;53.556;49.214;2022-11-25T09:11:23;24.52;;;14.87;;
67562;SDS011;54392;53.556;49.214;2022-11-25T09:13:49;23.52;;;15.48;;
67562;SDS011;54392;53.556;49.214;2022-11-25T09:16:18;23.80;;;14.30;;
67562;SDS011;54392;53.556;49.214;2022-11-25T09:18:54;30.37;;;16.55;;
67562;SDS011;54392;53.556;49.214;2022-11-25T09:21:21;29.75;;;19.70;;
67562;SDS011;54392;53.556;49.214;2022-11-25T09:23:56;29.35;;;20.30;;
67562;SDS011;54392;53.556;49.214;2022-11-25T09:26:28;31.12;;;16.27;;
67562;SDS011;54392;53.556;49.214;2022-11-25T09:28:56;25.12;;;18.60;;
67562;SDS011;54392;53.556;49.214;2022-11-25T09:31:23;32.70;;;20.45;;
67562;SDS011;54392;53.556;49.214;2022-11-25T09:33:58;30.27;;;19.10;;
67562;SDS011;54392;53.556;49.214;2022-11-25T09:36:24;36.67;;;20.67;;
67562;SDS011;54392;53.556;49.214;2022-11-25T09:38:54;28.95;;;20.30;;
67562;SDS011;54392;53.556;49.214;2022-11-25T09:41:37;44.92;;;21.17;;
67562;SDS011;54392;53.556;49.214;2022-11-25T09:48:01;49.75;;;27.65;;
67562;SDS011;54392;53.556;49.214;2022-11-25T09:55:58;45.25;;;28.67;;
67562;SDS011;54392;53.556;49.214;2022-11-25T09:58:38;52.80;;;29.55;;
67562;SDS011;54392;53.556;49.214;2022-11-25T10:01:24;63.42;;;33.75;;
67562;SDS011;54392;53.556;49.214;2022-11-25T10:04:00;65.25;;;37.00;;
67562;SDS011;54392;53.556;49.214;2022-11-25T10:06:32;59.08;;;31.37;;
67562;SDS011;54392;53.556;49.214;2022-11-25T10:09:08;57.78;;;32.53;;
67562;SDS011;54392;53.556;49.214;2022-11-25T10:11:54;63.35;;;30.48;;
67562;SDS011;54392;53.556;49.214;2022-11-25T10:22:26;54.70;;;33.88;;
67562;SDS011;54392;53.556;49.214;2022-11-25T10:25:00;50.58;;;30.67;;
67562;SDS011;54392;53.556;49.214;2022-11-25T10:30:18;77.00;;;40.70;;
67562;SDS011;54392;53.556;49.214;2022-11-25T10:32:51;60.22;;;32.75;;
67562;SDS011;54392;53.556;49.214;2022-11-25T10:35:40;57.97;;;30.55;;
67562;SDS011;54392;53.556;49.214;2022-11-25T10:38:12;58.87;;;31.62;;
67562;SDS011;54392;53.556;49.214;2022-11-25T10:40:46;63.00;;;32.55;;
67562;SDS011;54392;53.556;49.214;2022-11-25T10:43:13;47.15;;;33.83;;
67562;SDS011;54392;53.556;49.214;2022-11-25T10:45:43;66.97;;;35.88;;
67562;SDS011;54392;53.556;49.214;2022-11-25T10:48:30;46.50;;;29.27;;
67562;SDS011;54392;53.556;49.214;2022-11-25T10:52:08;47.75;;;30.35;;
67562;SDS011;54392;53.556;49.214;2022-11-25T10:54:18;56.30;;;26.17;;
67562;SDS011;54392;53.556;49.214;2022-11-25T10:56:52;42.70;;;26.77;;
67562;SDS011;54392;53.556;49.214;2022-11-25T10:59:33;45.67;;;25.73;;
67562;SDS011;54392;53.556;49.214;2022-11-25T11:02:13;38.40;;;27.05;;
67562;SDS011;54392;53.556;49.214;2022-11-25T11:04:59;42.50;;;24.02;;
67562;SDS011;54392;53.556;49.214;2022-11-25T11:07:46;39.05;;;23.70;;
67562;SDS011;54392;53.556;49.214;2022-11-25T11:10:19;51.70;;;27.70;;
67562;SDS011;54392;53.556;49.214;2022-11-25T11:12:54;38.50;;;22.95;;
67562;SDS011;54392;53.556;49.214;2022-11-25T11:15:44;36.53;;;24.95;;
67562;SDS011;54392;53.556;49.214;2022-11-25T11:20:49;48.92;;;26.33;;
67562;SDS011;54392;53.556;49.214;2022-11-25T11:23:17;42.92;;;25.30;;
67562;SDS011;54392;53.556;49.214;2022-11-25T11:25:54;43.10;;;27.80;;
67562;SDS011;54392;53.556;49.214;2022-11-25T11:31:01;40.67;;;27.23;;
67562;SDS011;54392;53.556;49.214;2022-11-25T11:33:40;41.13;;;26.75;;
67562;SDS011;54392;53.556;49.214;2022-11-25T11:42:10;48.15;;;30.52;;
67562;SDS011;54392;53.556;49.214;2022-11-25T11:47:45;63.63;;;35.47;;
67562;SDS011;54392;53.556;49.214;2022-11-25T11:53:21;59.58;;;31.90;;
67562;SDS011;54392;53.556;49.214;2022-11-25T11:56:08;61.25;;;39.53;;
67562;SDS011;54392;53.556;49.214;2022-11-25T12:10:27;71.87;;;37.35;;
67562;SDS011;54392;53.556;49.214;2022-11-25T12:13:10;64.03;;;37.25;;
67562;SDS011;54392;53.556;49.214;2022-11-25T12:15:45;62.65;;;36.72;;
67562;SDS011;54392;53.556;49.214;2022-11-25T12:18:19;58.90;;;30.23;;
67562;SDS011;54392;53.556;49.214;2022-11-25T12:20:56;57.80;;;34.70;;
67562;SDS011;54392;53.556;49.214;2022-11-25T12:26:14;73.62;;;37.88;;
67562;SDS011;54392;53.556;49.214;2022-11-25T12:31:48;61.63;;;33.60;;
67562;SDS011;54392;53.556;49.214;2022-11-25T12:34:36;58.85;;;31.42;;
67562;SDS011;54392;53.556;49.214;2022-11-25T12:39:39;56.03;;;34.13;;
67562;SDS011;54392;53.556;49.214;2022-11-25T12:42:29;65.40;;;32.00;;
67562;SDS011;54392;53.556;49.214;2022-11-25T12:45:19;61.00;;;33.80;;
67562;SDS011;54392;53.556;49.214;2022-11-25T12:47:52;55.58;;;33.00;;
67562;SDS011;54392;53.556;49.214;2022-11-25T12:50:22;57.92;;;32.80;;
67562;SDS011;54392;53.556;49.214;2022-11-25T12:53:21;66.05;;;37.78;;
67562;SDS011;54392;53.556;49.214;2022-11-25T12:55:52;58.80;;;34.20;;
67562;SDS011;54392;53.556;49.214;2022-11-25T13:07:27;63.08;;;28.83;;
67562;SDS011;54392;53.556;49.214;2022-11-25T13:12:57;62.60;;;30.37;;
67562;SDS011;54392;53.556;49.214;2022-11-25T13:15:30;51.35;;;28.23;;
67562;SDS011;54392;53.556;49.214;2022-11-25T13:18:03;54.08;;;32.28;;
67562;SDS011;54392;53.556;49.214;2022-11-25T13:20:38;43.00;;;29.52;;
67562;SDS011;54392;53.556;49.214;2022-11-25T13:23:22;65.75;;;29.15;;
67562;SDS011;54392;53.556;49.214;2022-11-25T13:26:31;53.45;;;27.75;;
67562;SDS011;54392;53.556;49.214;2022-11-25T13:28:57;70.75;;;34.28;;
67562;SDS011;54392;53.556;49.214;2022-11-25T13:31:29;56.00;;;32.05;;
67562;SDS011;54392;53.556;49.214;2022-11-25T13:36:39;128.02;;;88.30;;
67562;SDS011;54392;53.556;49.214;2022-11-25T13:39:13;167.35;;;103.87;;
67562;SDS011;54392;53.556;49.214;2022-11-25T13:41:45;145.82;;;102.32;;
67562;SDS011;54392;53.556;49.214;2022-11-25T13:44:23;125.78;;;93.72;;
67562;SDS011;54392;53.556;49.214;2022-11-25T13:47:00;105.87;;;70.37;;
67562;SDS011;54392;53.556;49.214;2022-11-25T13:49:56;87.45;;;56.42;;
67562;SDS011;54392;53.556;49.214;2022-11-25T13:52:31;84.35;;;53.40;;
67562;SDS011;54392;53.556;49.214;2022-11-25T13:55:02;70.78;;;43.38;;
67562;SDS011;54392;53.556;49.214;2022-11-25T13:57:43;78.10;;;46.17;;
67562;SDS011;54392;53.556;49.214;2022-11-25T14:02:41;72.93;;;39.08;;
67562;SDS011;54392;53.556;49.214;2022-11-25T14:08:16;70.37;;;36.35;;
67562;SDS011;54392;53.556;49.214;2022-11-25T14:27:54;49.20;;;26.90;;
67562;SDS011;54392;53.556;49.214;2022-11-25T14:30:24;37.28;;;22.05;;
67562;SDS011;54392;53.556;49.214;2022-11-25T14:32:55;39.10;;;23.25;;
67562;SDS011;54392;53.556;49.214;2022-11-25T14:35:31;42.13;;;25.70;;
67562;SDS011;54392;53.556;49.214;2022-11-25T14:38:19;50.65;;;23.40;;
67562;SDS011;54392;53.556;49.214;2022-11-25T14:40:56;40.33;;;24.20;;
67562;SDS011;54392;53.556;49.214;2022-11-25T14:43:26;43.53;;;25.17;;
67562;SDS011;54392;53.556;49.214;2022-11-25T14:46:08;32.85;;;23.33;;
67562;SDS011;54392;53.556;49.214;2022-11-25T14:48:36;43.50;;;19.87;;
67562;SDS011;54392;53.556;49.214;2022-11-25T14:51:03;45.10;;;23.08;;
67562;SDS011;54392;53.556;49.214;2022-11-25T14:53:37;42.47;;;23.55;;
67562;SDS011;54392;53.556;49.214;2022-11-25T14:56:08;37.17;;;24.50;;
67562;SDS011;54392;53.556;49.214;2022-11-25T14:58:38;40.80;;;23.02;;
67562;SDS011;54392;53.556;49.214;2022-11-25T15:01:19;45.08;;;25.45;;
67562;SDS011;54392;53.556;49.214;2022-11-25T15:04:00;74.85;;;29.02;;
67562;SDS011;54392;53.556;49.214;2022-11-25T15:06:39;40.12;;;20.27;;
67562;SDS011;54392;53.556;49.214;2022-11-25T15:09:16;41.60;;;20.65;;
67562;SDS011;54392;53.556;49.214;2022-11-25T15:11:44;40.88;;;20.37;;
67562;SDS011;54392;53.556;49.214;2022-11-25T15:14:17;44.05;;;23.38;;
67562;SDS011;54392;53.556;49.214;2022-11-25T15:16:49;56.08;;;21.75;;
67562;SDS011;54392;53.556;49.214;2022-11-25T15:19:16;34.95;;;19.08;;
67562;SDS011;54392;53.556;49.214;2022-11-25T15:21:44;41.40;;;25.17;;
67562;SDS011;54392;53.556;49.214;2022-11-25T15:24:45;28.58;;;18.35;;
67562;SDS011;54392;53.556;49.214;2022-11-25T15:27:17;40.50;;;18.52;;
67562;SDS011;54392;53.556;49.214;2022-11-25T15:29:47;37.53;;;19.15;;
67562;SDS011;54392;53.556;49.214;2022-11-25T15:32:32;26.05;;;16.65;;
67562;SDS011;54392;53.556;49.214;2022-11-25T15:35:02;29.27;;;18.98;;
67562;SDS011;54392;53.556;49.214;2022-11-25T15:37:38;32.30;;;21.10;;
67562;SDS011;54392;53.556;49.214;2022-11-25T15:43:24;37.50;;;21.37;;
67562;SDS011;54392;53.556;49.214;2022-11-25T15:45:55;27.42;;;17.52;;
67562;SDS011;54392;53.556;49.214;2022-11-25T15:48:29;33.85;;;29.90;;
67562;SDS011;54392;53.556;49.214;2022-11-25T15:51:02;45.15;;;29.33;;
67562;SDS011;54392;53.556;49.214;2022-11-25T15:53:36;93.05;;;86.43;;
67562;SDS011;54392;53.556;49.214;2022-11-25T15:56:04;35.15;;;20.52;;
67562;SDS011;54392;53.556;49.214;2022-11-25T15:58:39;110.18;;;49.05;;
67562;SDS011;54392;53.556;49.214;2022-11-25T16:03:45;24.70;;;17.10;;
67562;SDS011;54392;53.556;49.214;2022-11-25T16:06:22;27.35;;;18.33;;
67562;SDS011;54392;53.556;49.214;2022-11-25T16:08:53;20.02;;;14.50;;
67562;SDS011;54392;53.556;49.214;2022-11-25T16:11:23;25.02;;;19.05;;
67562;SDS011;54392;53.556;49.214;2022-11-25T16:13:53;34.47;;;19.75;;
67562;SDS011;54392;53.556;49.214;2022-11-25T16:16:27;38.90;;;21.12;;
67562;SDS011;54392;53.556;49.214;2022-11-25T16:19:09;28.92;;;21.83;;
67562;SDS011;54392;53.556;49.214;2022-11-25T16:21:52;30.42;;;18.25;;
67562;SDS011;54392;53.556;49.214;2022-11-25T16:26:59;35.05;;;24.25;;